createdAt,value
2019-03-08T00:01:08.779Z,974.34
2019-03-08T00:01:47.775Z,974.31
2019-03-08T00:02:48.279Z,974.38
2019-03-08T00:04:09.276Z,974.24
2019-03-08T00:04:52.278Z,974.16
2019-03-08T00:05:48.275Z,974.28
2019-03-08T00:06:50.215Z,974.21
2019-03-08T00:07:48.775Z,974.33
2019-03-08T00:08:48.777Z,974.31
2019-03-08T00:10:19.775Z,974.32
2019-03-08T00:10:48.781Z,974.28
2019-03-08T00:12:10.277Z,974.35
2019-03-08T00:12:49.274Z,974.32
2019-03-08T00:13:49.282Z,974.40
2019-03-08T00:14:49.289Z,974.36
2019-03-08T00:16:14.278Z,974.41
2019-03-08T00:17:10.774Z,974.38
2019-03-08T00:18:13.713Z,974.32
2019-03-08T00:18:49.774Z,974.36
2019-03-08T00:19:50.283Z,974.48
2019-03-08T00:20:50.284Z,974.42
2019-03-08T00:21:54.273Z,974.50
2019-03-08T00:22:50.275Z,974.51
2019-03-08T00:25:22.015Z,974.39
2019-03-08T00:26:22.014Z,974.47
2019-03-08T00:27:26.014Z,974.42
2019-03-08T00:28:43.514Z,974.41
2019-03-08T00:29:22.514Z,974.47
2019-03-08T00:30:21.856Z,974.38
2019-03-08T00:31:22.521Z,974.46
2019-03-08T00:32:23.014Z,974.43
2019-03-08T00:33:54.015Z,974.47
2019-03-08T00:34:23.014Z,974.47
2019-03-08T00:35:23.015Z,974.51
2019-03-08T00:36:44.513Z,974.50
2019-03-08T00:37:23.514Z,974.60
2019-03-08T00:38:23.513Z,974.59
2019-03-08T00:39:28.467Z,974.66
2019-03-08T00:40:24.014Z,974.63
2019-03-08T00:42:55.247Z,974.70
2019-03-08T00:43:55.252Z,974.69
2019-03-08T00:44:58.757Z,974.57
2019-03-08T00:45:55.757Z,974.58
2019-03-08T00:46:55.795Z,974.71
2019-03-08T00:47:55.754Z,974.68
2019-03-08T00:48:55.754Z,974.73
2019-03-08T00:49:59.754Z,974.73
2019-03-08T00:50:56.254Z,974.68
2019-03-08T00:51:56.253Z,974.74
2019-03-08T00:52:56.258Z,974.83
2019-03-08T00:53:56.755Z,974.72
2019-03-08T00:54:56.753Z,974.70
2019-03-08T00:56:01.726Z,974.75
2019-03-08T00:56:56.754Z,974.71
2019-03-08T00:57:57.254Z,974.67
2019-03-08T00:58:57.254Z,974.68
2019-03-08T00:59:57.258Z,974.74
2019-03-08T01:00:57.254Z,974.78
2019-03-08T01:02:00.753Z,974.80
2019-03-08T01:02:57.754Z,974.71
2019-03-08T01:03:57.763Z,974.75
2019-03-08T01:04:57.753Z,974.75
2019-03-08T01:05:59.687Z,974.81
2019-03-08T01:07:01.755Z,974.77
2019-03-08T01:07:58.253Z,974.82
2019-03-08T01:08:58.253Z,974.83
2019-03-08T01:10:19.752Z,974.83
2019-03-08T01:10:58.753Z,974.93
2019-03-08T01:12:01.753Z,974.97
2019-03-08T01:12:58.752Z,974.98
2019-03-08T01:14:20.261Z,974.91
2019-03-08T01:14:59.253Z,975.00
2019-03-08T01:16:20.253Z,975.01
2019-03-08T01:17:03.253Z,974.97
2019-03-08T01:18:20.764Z,975.06
2019-03-08T01:19:01.188Z,975.09
2019-03-08T01:20:20.752Z,975.02
2019-03-08T01:20:59.753Z,975.07
2019-03-08T01:22:03.693Z,975.12
2019-03-08T01:23:04.252Z,975.08
2019-03-08T01:24:00.259Z,975.09
2019-03-08T01:25:00.291Z,975.06
2019-03-08T01:26:00.252Z,975.10
2019-03-08T01:27:00.757Z,975.12
2019-03-08T01:28:00.762Z,975.07
2019-03-08T01:30:36.476Z,975.18
2019-03-08T01:31:35.510Z,975.12
2019-03-08T01:32:36.018Z,975.07
2019-03-08T01:33:36.011Z,975.08
2019-03-08T01:34:40.479Z,975.06
2019-03-08T01:35:36.010Z,975.03
2019-03-08T01:36:36.011Z,975.09
2019-03-08T01:37:36.511Z,975.00
2019-03-08T01:38:36.510Z,975.05
2019-03-08T01:39:36.517Z,975.14
2019-03-08T01:40:40.517Z,975.13
2019-03-08T01:41:37.012Z,975.12
2019-03-08T01:42:58.010Z,975.12
2019-03-08T01:43:37.018Z,975.16
2019-03-08T01:44:37.010Z,975.11
2019-03-08T01:45:43.010Z,975.14
2019-03-08T01:46:37.511Z,975.11
2019-03-08T01:47:37.511Z,975.16
2019-03-08T01:48:37.507Z,975.09
2019-03-08T01:49:38.052Z,975.24
2019-03-08T01:51:02.510Z,975.14
2019-03-08T01:51:38.012Z,975.22
2019-03-08T01:52:38.010Z,975.12
2019-03-08T01:55:30.746Z,975.12
2019-03-08T01:56:13.750Z,975.05
2019-03-08T01:57:09.750Z,975.12
2019-03-08T01:58:10.254Z,975.10
2019-03-08T01:59:10.250Z,975.14
2019-03-08T02:00:18.685Z,975.14
2019-03-08T02:01:10.260Z,975.09
2019-03-08T02:03:45.046Z,975.10
2019-03-08T02:04:45.055Z,975.11
2019-03-08T02:05:45.063Z,975.12
2019-03-08T02:06:45.553Z,975.08
2019-03-08T02:07:49.053Z,975.27
2019-03-08T02:08:45.563Z,975.08
2019-03-08T02:10:06.553Z,975.08
2019-03-08T02:11:07.052Z,975.08
2019-03-08T02:11:46.060Z,975.05
2019-03-08T02:12:46.053Z,975.29
2019-03-08T02:13:50.053Z,975.10
2019-03-08T02:14:46.557Z,975.07
2019-03-08T02:15:46.554Z,975.06
2019-03-08T02:16:46.552Z,975.20
2019-03-08T02:17:46.553Z,975.16
2019-03-08T02:18:47.062Z,975.14
2019-03-08T02:19:50.053Z,975.20
2019-03-08T02:20:47.050Z,975.19
2019-03-08T02:21:47.077Z,975.22
2019-03-08T02:23:08.553Z,975.18
2019-03-08T02:24:07.755Z,975.18
2019-03-08T02:24:51.552Z,975.21
2019-03-08T02:25:47.583Z,975.23
2019-03-08T02:26:47.553Z,975.26
2019-03-08T02:27:48.053Z,975.17
2019-03-08T02:29:09.052Z,975.21
2019-03-08T02:29:48.055Z,975.21
2019-03-08T02:30:51.552Z,975.15
2019-03-08T02:31:48.558Z,975.23
2019-03-08T02:32:48.552Z,975.17
2019-03-08T02:33:48.554Z,975.12
2019-03-08T02:34:48.553Z,975.23
2019-03-08T02:35:52.551Z,975.21
2019-03-08T02:38:20.412Z,975.19
2019-03-08T02:39:20.418Z,975.16
2019-03-08T02:40:20.424Z,975.17
2019-03-08T02:41:23.917Z,975.13
2019-03-08T02:42:20.921Z,975.15
2019-03-08T02:43:20.918Z,975.06
2019-03-08T02:44:20.919Z,975.18
2019-03-08T02:45:21.453Z,975.17
2019-03-08T02:46:25.420Z,975.11
2019-03-08T02:47:21.419Z,975.17
2019-03-08T02:48:21.417Z,975.10
2019-03-08T02:49:21.924Z,975.22
2019-03-08T02:50:21.917Z,975.18
2019-03-08T02:51:21.924Z,975.19
2019-03-08T02:52:25.424Z,975.19
2019-03-08T02:53:22.417Z,975.25
2019-03-08T02:55:53.794Z,975.22
2019-03-08T02:56:53.783Z,975.16
2019-03-08T02:57:56.785Z,975.22
2019-03-08T02:58:54.341Z,975.17
2019-03-08T02:59:54.287Z,975.25
2019-03-08T03:00:54.287Z,975.18
2019-03-08T03:01:54.285Z,975.22
2019-03-08T03:03:18.784Z,975.23
2019-03-08T03:03:54.790Z,975.13
2019-03-08T03:04:54.781Z,975.17
2019-03-08T03:05:54.784Z,975.22
2019-03-08T03:06:55.283Z,975.14
2019-03-08T03:07:59.280Z,975.30
2019-03-08T03:08:55.277Z,975.23
2019-03-08T03:09:55.284Z,975.09
2019-03-08T03:10:55.780Z,975.11
2019-03-08T03:11:55.781Z,975.08
2019-03-08T03:12:55.782Z,975.15
2019-03-08T03:14:00.289Z,975.03
2019-03-08T03:14:56.280Z,975.15
2019-03-08T03:15:57.223Z,975.20
2019-03-08T03:16:56.280Z,975.05
2019-03-08T03:18:17.281Z,975.21
2019-03-08T03:18:56.284Z,975.20
2019-03-08T03:20:00.338Z,975.23
2019-03-08T03:20:56.779Z,975.25
2019-03-08T03:22:18.758Z,975.17
2019-03-08T03:22:56.780Z,975.20
2019-03-08T03:23:58.232Z,975.19
2019-03-08T03:24:57.287Z,975.20
2019-03-08T03:26:01.279Z,975.22
2019-03-08T03:26:57.321Z,975.27
2019-03-08T03:27:57.281Z,975.27
2019-03-08T03:28:57.279Z,975.30
2019-03-08T03:29:57.779Z,975.29
2019-03-08T03:30:57.795Z,975.28
2019-03-08T03:32:01.280Z,975.29
2019-03-08T03:32:57.781Z,975.38
2019-03-08T03:33:59.721Z,975.34
2019-03-08T03:34:58.279Z,975.45
2019-03-08T03:35:58.280Z,975.40
2019-03-08T03:37:02.279Z,975.37
2019-03-08T03:37:58.278Z,975.39
2019-03-08T03:38:58.778Z,975.44
2019-03-08T03:39:58.778Z,975.42
2019-03-08T03:40:58.785Z,975.41
2019-03-08T03:41:58.780Z,975.35
2019-03-08T03:43:02.279Z,975.43
2019-03-08T03:43:59.323Z,975.42
2019-03-08T03:44:59.285Z,975.39
2019-03-08T03:45:59.279Z,975.42
2019-03-08T03:47:20.778Z,975.47
2019-03-08T03:48:03.279Z,975.59
2019-03-08T03:48:59.779Z,975.48
2019-03-08T03:49:59.777Z,975.48
2019-03-08T03:51:00.285Z,975.54
2019-03-08T03:52:21.285Z,975.57
2019-03-08T03:53:00.277Z,975.58
2019-03-08T03:54:04.278Z,975.51
2019-03-08T03:55:00.793Z,975.63
2019-03-08T03:56:00.783Z,975.60
2019-03-08T03:57:00.776Z,975.61
2019-03-08T03:58:01.712Z,975.67
2019-03-08T03:59:01.279Z,975.69
2019-03-08T04:00:25.278Z,975.74
2019-03-08T04:01:01.285Z,975.69
2019-03-08T04:02:01.286Z,975.65
2019-03-08T04:03:01.777Z,975.67
2019-03-08T04:04:01.777Z,975.74
2019-03-08T04:05:05.778Z,975.68
2019-03-08T04:06:01.777Z,975.75
2019-03-08T04:07:23.278Z,975.72
2019-03-08T04:08:02.284Z,975.68
2019-03-08T04:09:02.277Z,975.70
2019-03-08T04:10:02.279Z,975.70
2019-03-08T04:11:06.780Z,975.71
2019-03-08T04:12:02.777Z,975.73
2019-03-08T04:13:02.777Z,975.76
2019-03-08T04:14:02.777Z,975.75
2019-03-08T04:15:24.277Z,975.81
2019-03-08T04:16:03.276Z,975.83
2019-03-08T04:17:06.782Z,975.77
2019-03-08T04:18:03.276Z,975.85
2019-03-08T04:19:24.776Z,975.86
2019-03-08T04:21:35.179Z,975.85
2019-03-08T04:22:39.148Z,975.83
2019-03-08T04:23:35.147Z,975.94
2019-03-08T04:24:35.649Z,975.87
2019-03-08T04:25:35.652Z,975.88
2019-03-08T04:26:56.650Z,975.91
2019-03-08T04:27:35.647Z,975.91
2019-03-08T04:28:39.154Z,975.95
2019-03-08T04:29:36.155Z,975.89
2019-03-08T04:30:36.150Z,975.91
2019-03-08T04:31:36.147Z,975.96
2019-03-08T04:32:36.647Z,975.87
2019-03-08T04:33:40.147Z,975.94
2019-03-08T04:34:36.649Z,975.96
2019-03-08T04:35:36.644Z,975.92
2019-03-08T04:36:58.144Z,975.99
2019-03-08T04:37:58.150Z,975.97
2019-03-08T04:38:37.146Z,976.00
2019-03-08T04:39:41.146Z,975.97
2019-03-08T04:40:58.646Z,976.01
2019-03-08T04:43:09.010Z,976.10
2019-03-08T04:44:30.018Z,976.18
2019-03-08T04:45:13.027Z,976.10
2019-03-08T04:49:12.194Z,976.15
2019-03-08T04:50:16.201Z,976.15
2019-03-08T04:51:12.201Z,976.20
2019-03-08T04:52:12.705Z,976.17
2019-03-08T04:53:12.711Z,976.24
2019-03-08T04:54:12.700Z,976.22
2019-03-08T04:55:12.700Z,976.24
2019-03-08T04:56:16.202Z,976.28
2019-03-08T04:57:13.226Z,976.31
2019-03-08T04:58:13.201Z,976.36
2019-03-08T04:59:13.200Z,976.33
2019-03-08T05:00:13.700Z,976.44
2019-03-08T05:01:17.205Z,976.34
2019-03-08T05:02:13.698Z,976.32
2019-03-08T05:03:13.702Z,976.34
2019-03-08T05:04:14.211Z,976.37
2019-03-08T05:05:14.202Z,976.30
2019-03-08T05:06:44.700Z,976.36
2019-03-08T05:07:14.209Z,976.38
2019-03-08T05:09:45.956Z,976.40
2019-03-08T05:10:45.950Z,976.49
2019-03-08T05:11:49.955Z,976.39
2019-03-08T05:12:46.450Z,976.42
2019-03-08T05:13:48.425Z,976.46
2019-03-08T05:14:46.450Z,976.52
2019-03-08T05:15:46.457Z,976.53
2019-03-08T05:17:11.449Z,976.50
2019-03-08T05:17:47.891Z,976.54
2019-03-08T05:18:46.950Z,976.55
2019-03-08T05:19:46.961Z,976.47
2019-03-08T05:20:46.960Z,976.57
2019-03-08T05:21:47.450Z,976.62
2019-03-08T05:22:51.453Z,976.61
2019-03-08T05:24:08.450Z,976.56
2019-03-08T05:24:47.453Z,976.51
2019-03-08T05:25:47.950Z,976.73
2019-03-08T05:28:22.803Z,976.66
2019-03-08T05:29:19.317Z,976.63
2019-03-08T05:30:19.321Z,976.63
2019-03-08T05:31:19.813Z,976.65
2019-03-08T05:32:40.818Z,976.61
2019-03-08T05:33:22.814Z,976.59
2019-03-08T05:34:19.816Z,976.68
2019-03-08T05:35:41.318Z,976.68
2019-03-08T05:36:41.313Z,976.65
2019-03-08T05:37:20.314Z,976.66
2019-03-08T05:38:45.315Z,976.61
2019-03-08T05:39:20.835Z,976.70
2019-03-08T05:40:22.813Z,976.69
2019-03-08T05:41:20.813Z,976.77
2019-03-08T05:42:20.812Z,976.69
2019-03-08T05:43:22.787Z,976.72
2019-03-08T05:46:17.558Z,976.73
2019-03-08T05:46:56.571Z,976.73
2019-03-08T05:47:56.562Z,976.75
2019-03-08T05:48:57.062Z,976.78
2019-03-08T05:50:01.063Z,976.79
2019-03-08T05:50:57.063Z,976.86
2019-03-08T05:51:57.058Z,976.88
2019-03-08T05:52:59.561Z,976.94
2019-03-08T05:53:57.562Z,976.88
2019-03-08T05:55:01.080Z,976.87
2019-03-08T05:55:57.567Z,976.98
2019-03-08T05:56:58.061Z,976.88
2019-03-08T05:58:19.061Z,976.96
2019-03-08T05:59:19.063Z,976.95
2019-03-08T06:00:31.978Z,976.95
2019-03-08T06:01:19.561Z,977.01
2019-03-08T06:01:58.560Z,976.99
2019-03-08T06:02:58.565Z,977.07
2019-03-08T06:03:58.561Z,977.08
2019-03-08T06:04:59.062Z,976.98
2019-03-08T06:06:02.067Z,977.12
2019-03-08T06:06:59.085Z,977.06
2019-03-08T06:07:59.088Z,977.15
2019-03-08T06:08:59.562Z,977.20
2019-03-08T06:10:20.636Z,977.18
2019-03-08T06:11:03.066Z,977.23
2019-03-08T06:12:20.563Z,977.21
2019-03-08T06:12:59.561Z,977.28
2019-03-08T06:14:02.061Z,977.24
2019-03-08T06:15:00.995Z,977.20
2019-03-08T06:16:02.061Z,977.32
2019-03-08T06:17:04.061Z,977.27
2019-03-08T06:18:21.560Z,977.31
2019-03-08T06:19:02.560Z,977.29
2019-03-08T06:20:14.559Z,977.30
2019-03-08T06:21:00.560Z,977.32
2019-03-08T06:22:03.495Z,977.33
2019-03-08T06:23:04.693Z,977.35
2019-03-08T06:24:01.060Z,977.45
2019-03-08T06:25:01.060Z,977.43
2019-03-08T06:26:01.567Z,977.41
2019-03-08T06:27:01.568Z,977.39
2019-03-08T06:28:26.561Z,977.37
2019-03-08T06:29:01.560Z,977.43
2019-03-08T06:30:02.061Z,977.46
2019-03-08T06:31:23.060Z,977.49
2019-03-08T06:32:02.062Z,977.47
2019-03-08T06:33:02.064Z,977.48
2019-03-08T06:35:38.689Z,977.52
2019-03-08T06:36:37.758Z,977.60
2019-03-08T06:37:37.754Z,977.57
2019-03-08T06:38:38.248Z,977.67
2019-03-08T06:39:41.753Z,977.71
2019-03-08T06:40:38.258Z,977.66
2019-03-08T06:41:38.261Z,977.80
2019-03-08T06:42:38.756Z,977.72
2019-03-08T06:43:38.753Z,977.69
2019-03-08T06:44:40.753Z,977.86
2019-03-08T06:45:42.758Z,977.88
2019-03-08T06:47:00.254Z,977.87
2019-03-08T06:47:39.270Z,977.93
2019-03-08T06:48:39.254Z,977.96
2019-03-08T06:49:39.273Z,977.99
2019-03-08T06:50:39.771Z,978.02
2019-03-08T06:51:42.753Z,978.01
2019-03-08T06:52:39.753Z,978.10
2019-03-08T06:53:39.753Z,978.10
2019-03-08T06:55:01.256Z,978.17
2019-03-08T06:56:01.260Z,978.21
2019-03-08T06:56:44.253Z,978.15
2019-03-08T06:58:01.253Z,978.16
2019-03-08T06:58:40.753Z,978.25
2019-03-08T06:59:40.752Z,978.22
2019-03-08T07:00:40.755Z,978.24
2019-03-08T07:02:05.753Z,978.28
2019-03-08T07:02:43.265Z,978.27
2019-03-08T07:04:02.252Z,978.34
2019-03-08T07:05:02.253Z,978.50
2019-03-08T07:06:02.255Z,978.40
2019-03-08T07:07:02.752Z,978.49
2019-03-08T07:08:06.263Z,978.51
2019-03-08T07:08:41.752Z,978.49
2019-03-08T07:09:41.752Z,978.55
2019-03-08T07:10:44.253Z,978.53
2019-03-08T07:11:42.252Z,978.61
2019-03-08T07:12:42.259Z,978.65
2019-03-08T07:13:46.255Z,978.62
2019-03-08T07:14:45.186Z,978.66
2019-03-08T07:16:12.488Z,978.72
2019-03-08T07:16:42.752Z,978.72
2019-03-08T07:17:42.751Z,978.79
2019-03-08T07:19:07.753Z,978.78
2019-03-08T07:19:43.276Z,978.85
2019-03-08T07:21:04.336Z,978.80
2019-03-08T07:21:43.252Z,978.81
2019-03-08T07:22:43.751Z,978.83
2019-03-08T07:23:43.752Z,978.85
2019-03-08T07:24:47.250Z,978.85
2019-03-08T07:25:51.141Z,978.90
2019-03-08T07:26:44.251Z,978.83
2019-03-08T07:27:44.251Z,978.84
2019-03-08T07:28:44.252Z,978.92
2019-03-08T07:29:44.251Z,979.04
2019-03-08T07:30:54.887Z,978.92
2019-03-08T07:33:16.116Z,979.02
2019-03-08T07:34:17.550Z,979.11
2019-03-08T07:35:22.125Z,979.11
2019-03-08T07:36:20.121Z,979.14
2019-03-08T07:37:15.703Z,979.25
2019-03-08T07:38:15.796Z,979.25
2019-03-08T07:39:16.624Z,979.27
2019-03-08T07:40:17.579Z,979.27
2019-03-08T07:41:16.630Z,979.28
2019-03-08T07:42:20.121Z,979.33
2019-03-08T07:43:17.115Z,979.32
2019-03-08T07:44:18.077Z,979.33
2019-03-08T07:45:17.115Z,979.38
2019-03-08T07:46:18.086Z,979.40
2019-03-08T07:47:17.116Z,979.47
2019-03-08T07:48:42.119Z,979.44
2019-03-08T07:49:17.619Z,979.50
2019-03-08T07:50:38.615Z,979.54
2019-03-08T07:51:19.076Z,979.53
2019-03-08T07:52:39.115Z,979.55
2019-03-08T07:53:18.112Z,979.50
2019-03-08T07:54:21.115Z,979.60
2019-03-08T07:55:18.114Z,979.69
2019-03-08T07:56:18.112Z,979.72
2019-03-08T07:57:20.614Z,979.76
2019-03-08T07:58:18.616Z,979.77
2019-03-08T07:59:22.614Z,979.83
2019-03-08T08:00:18.082Z,979.86
2019-03-08T08:01:21.132Z,979.88
2019-03-08T08:02:18.327Z,979.94
2019-03-08T08:03:19.117Z,980.00
2019-03-08T08:04:19.117Z,980.02
2019-03-08T08:05:22.758Z,980.07
2019-03-08T08:06:40.614Z,980.16
2019-03-08T08:07:19.616Z,980.20
2019-03-08T08:08:19.612Z,980.27
2019-03-08T08:09:26.547Z,980.31
2019-03-08T08:10:20.125Z,980.24
2019-03-08T08:13:15.868Z,980.44
2019-03-08T08:13:54.867Z,980.44
2019-03-08T08:14:54.916Z,980.47
2019-03-08T08:17:30.700Z,980.51
2019-03-08T08:19:58.153Z,980.44
2019-03-08T08:20:58.158Z,980.54
2019-03-08T08:21:58.161Z,980.45
2019-03-08T08:23:02.161Z,980.60
2019-03-08T08:23:58.661Z,980.56
2019-03-08T08:24:58.660Z,980.59
2019-03-08T08:25:59.594Z,980.62
2019-03-08T08:26:59.161Z,980.71
2019-03-08T08:27:59.160Z,980.74
2019-03-08T08:29:03.162Z,980.76
2019-03-08T08:29:59.168Z,980.83
2019-03-08T08:30:59.660Z,980.93
2019-03-08T08:31:59.660Z,980.85
2019-03-08T08:32:59.669Z,980.89
2019-03-08T08:34:04.157Z,980.84
2019-03-08T08:35:00.282Z,980.83
2019-03-08T08:36:00.160Z,980.88
2019-03-08T08:37:00.160Z,980.92
2019-03-08T08:38:00.187Z,980.97
2019-03-08T08:39:00.667Z,980.92
2019-03-08T08:40:03.579Z,980.94
2019-03-08T08:41:00.666Z,980.95
2019-03-08T08:42:00.659Z,980.99
2019-03-08T08:43:03.159Z,981.02
2019-03-08T08:44:01.159Z,981.06
2019-03-08T08:45:01.158Z,981.02
2019-03-08T08:46:05.192Z,981.08
2019-03-08T08:47:01.659Z,981.12
2019-03-08T08:48:01.658Z,981.11
2019-03-08T08:49:01.663Z,981.07
2019-03-08T08:50:01.665Z,981.04
2019-03-08T08:51:02.159Z,981.04
2019-03-08T08:52:05.163Z,981.15
2019-03-08T08:53:02.159Z,981.11
2019-03-08T08:54:02.160Z,981.15
2019-03-08T08:55:02.661Z,981.12
2019-03-08T08:57:59.015Z,981.18
2019-03-08T08:58:34.019Z,981.21
2019-03-08T08:59:34.025Z,981.19
2019-03-08T09:00:33.610Z,981.28
2019-03-08T09:01:34.523Z,981.25
2019-03-08T09:03:00.530Z,981.21
2019-03-08T09:03:33.994Z,981.27
2019-03-08T09:04:41.026Z,981.24
2019-03-08T09:05:35.022Z,981.27
2019-03-08T09:06:36.454Z,981.25
2019-03-08T09:07:39.019Z,981.29
2019-03-08T09:08:56.518Z,981.27
2019-03-08T09:09:35.521Z,981.31
2019-03-08T09:10:35.521Z,981.30
2019-03-08T09:11:44.015Z,981.32
2019-03-08T09:12:35.072Z,981.33
2019-03-08T09:13:39.020Z,981.31
2019-03-08T09:14:36.055Z,981.32
2019-03-08T09:15:36.019Z,981.35
2019-03-08T09:16:57.647Z,981.39
2019-03-08T09:19:11.762Z,981.39
2019-03-08T09:20:07.765Z,981.37
2019-03-08T09:21:07.774Z,981.43
2019-03-08T09:22:08.265Z,981.41
2019-03-08T09:23:08.265Z,981.44
2019-03-08T09:24:32.769Z,981.44
2019-03-08T09:25:08.265Z,981.42
2019-03-08T09:26:08.765Z,981.48
2019-03-08T09:27:08.812Z,981.48
2019-03-08T09:28:08.765Z,981.50
2019-03-08T09:29:08.764Z,981.59
2019-03-08T09:30:32.770Z,981.63
2019-03-08T09:31:09.267Z,981.66
2019-03-08T09:32:09.264Z,981.70
2019-03-08T09:33:09.266Z,981.68
2019-03-08T09:34:09.264Z,981.76
2019-03-08T09:35:34.273Z,981.78
2019-03-08T09:36:30.771Z,981.77
2019-03-08T09:37:09.764Z,981.78
2019-03-08T09:38:09.767Z,981.77
2019-03-08T09:39:31.303Z,981.83
2019-03-08T09:40:15.708Z,981.85
2019-03-08T09:41:10.262Z,981.87
2019-03-08T09:42:10.276Z,981.90
2019-03-08T09:43:10.262Z,981.94
2019-03-08T09:44:10.766Z,981.96
2019-03-08T09:45:10.765Z,982.00
2019-03-08T09:46:35.264Z,981.99
2019-03-08T09:47:10.762Z,981.98
2019-03-08T09:48:11.265Z,982.03
2019-03-08T09:49:32.264Z,981.99
2019-03-08T09:50:32.265Z,982.02
2019-03-08T09:51:36.263Z,982.06
2019-03-08T09:52:32.770Z,982.08
2019-03-08T09:53:11.765Z,982.13
2019-03-08T09:54:12.737Z,982.18
2019-03-08T09:55:11.764Z,982.19
2019-03-08T09:56:36.767Z,982.26
2019-03-08T09:57:12.264Z,982.21
2019-03-08T09:58:12.263Z,982.22
2019-03-08T09:59:12.263Z,982.30
2019-03-08T10:00:33.773Z,982.29
2019-03-08T10:01:18.778Z,982.35
2019-03-08T10:03:47.965Z,982.30
2019-03-08T10:04:47.972Z,982.40
2019-03-08T10:05:47.994Z,982.31
2019-03-08T10:06:48.472Z,982.35
2019-03-08T10:07:51.970Z,982.34
2019-03-08T10:08:48.471Z,982.35
2019-03-08T10:09:48.472Z,982.38
2019-03-08T10:12:19.817Z,982.44
2019-03-08T10:13:23.971Z,982.44
2019-03-08T10:14:20.714Z,982.49
2019-03-08T10:15:20.715Z,982.45
2019-03-08T10:16:23.213Z,982.48
2019-03-08T10:17:42.213Z,982.49
2019-03-08T10:18:23.718Z,982.50
2019-03-08T10:19:21.217Z,982.51
2019-03-08T10:20:21.713Z,982.57
2019-03-08T10:21:21.720Z,982.52
2019-03-08T10:22:21.065Z,982.54
2019-03-08T10:23:25.211Z,982.57
2019-03-08T10:24:22.214Z,982.54
2019-03-08T10:25:22.219Z,982.60
2019-03-08T10:26:22.220Z,982.59
2019-03-08T10:27:22.216Z,982.62
2019-03-08T10:30:18.658Z,982.70
2019-03-08T10:30:58.592Z,982.74
2019-03-08T10:31:57.655Z,982.82
2019-03-08T10:32:57.662Z,982.84
2019-03-08T10:34:00.657Z,982.86
2019-03-08T10:34:58.161Z,982.87
2019-03-08T10:36:01.106Z,982.90
2019-03-08T10:36:58.173Z,982.91
2019-03-08T10:37:58.658Z,982.96
2019-03-08T10:39:02.157Z,982.90
2019-03-08T10:39:58.667Z,982.98
2019-03-08T10:40:58.658Z,982.93
2019-03-08T10:41:59.156Z,982.92
2019-03-08T10:42:59.157Z,982.88
2019-03-08T10:44:08.960Z,982.95
2019-03-08T10:44:58.624Z,982.94
2019-03-08T10:45:59.658Z,982.98
2019-03-08T10:46:59.656Z,983.00
2019-03-08T10:47:59.657Z,982.93
2019-03-08T10:48:59.656Z,982.98
2019-03-08T10:50:03.157Z,982.96
2019-03-08T10:51:00.156Z,983.00
2019-03-08T10:52:00.157Z,982.95
2019-03-08T10:53:00.156Z,982.99
2019-03-08T10:54:23.656Z,983.01
2019-03-08T10:55:04.156Z,982.99
2019-03-08T10:56:00.662Z,983.05
2019-03-08T10:57:00.658Z,983.09
2019-03-08T10:58:24.158Z,983.08
2019-03-08T10:59:15.158Z,983.12
2019-03-08T11:00:02.652Z,983.07
2019-03-08T11:01:05.169Z,983.15
2019-03-08T11:02:01.155Z,983.20
2019-03-08T11:03:01.658Z,983.24
2019-03-08T11:04:01.656Z,983.19
2019-03-08T11:05:01.656Z,983.27
2019-03-08T11:06:01.655Z,983.25
2019-03-08T11:08:42.710Z,983.23
2019-03-08T11:09:36.805Z,983.30
2019-03-08T11:11:06.144Z,983.23
2019-03-08T11:11:36.778Z,983.27
2019-03-08T11:13:01.776Z,983.33
2019-03-08T11:15:08.646Z,983.48
2019-03-08T11:16:08.651Z,983.38
2019-03-08T11:17:08.663Z,983.41
2019-03-08T11:18:12.665Z,983.40
2019-03-08T11:19:09.213Z,983.34
2019-03-08T11:20:09.151Z,983.25
2019-03-08T11:21:09.147Z,983.40
2019-03-08T11:22:32.103Z,983.41
2019-03-08T11:23:34.149Z,983.47
2019-03-08T11:24:09.651Z,983.46
2019-03-08T11:25:09.656Z,983.56
2019-03-08T11:26:09.654Z,983.48
2019-03-08T11:28:45.389Z,983.78
2019-03-08T11:29:41.395Z,983.98
2019-03-08T11:30:41.395Z,984.39
2019-03-08T11:31:41.895Z,983.78
2019-03-08T11:32:41.895Z,984.23
2019-03-08T11:33:41.891Z,984.53
2019-03-08T11:35:06.395Z,984.49
2019-03-08T11:35:42.410Z,984.46
2019-03-08T11:36:42.397Z,983.67
2019-03-08T11:37:42.395Z,983.85
2019-03-08T11:38:42.397Z,983.60
2019-03-08T11:39:46.395Z,984.09
2019-03-08T11:40:42.908Z,983.99
2019-03-08T11:41:42.895Z,983.69
2019-03-08T11:42:42.895Z,983.74
2019-03-08T11:43:43.403Z,983.75
2019-03-08T11:44:43.400Z,983.68
2019-03-08T11:45:57.897Z,983.86
2019-03-08T11:46:43.396Z,983.76
2019-03-08T11:47:43.896Z,983.76
2019-03-08T11:48:44.381Z,983.84
2019-03-08T11:49:43.896Z,983.79
2019-03-08T11:50:43.896Z,983.75
2019-03-08T11:51:47.400Z,983.78
2019-03-08T11:52:44.395Z,983.78
2019-03-08T11:53:44.398Z,983.86
2019-03-08T11:54:44.395Z,983.91
2019-03-08T11:55:44.896Z,983.90
2019-03-08T11:56:55.889Z,983.94
2019-03-08T11:57:44.897Z,983.84
2019-03-08T11:58:44.902Z,983.86
2019-03-08T11:59:45.396Z,983.86
2019-03-08T12:00:45.396Z,983.87
2019-03-08T12:01:45.419Z,983.90
2019-03-08T12:02:49.400Z,983.93
2019-03-08T12:03:45.896Z,983.95
2019-03-08T12:04:50.837Z,984.04
2019-03-08T12:05:45.896Z,983.95
2019-03-08T12:06:48.331Z,983.90
2019-03-08T12:10:08.720Z,983.96
2019-03-08T12:11:04.726Z,984.01
2019-03-08T12:12:04.720Z,984.07
2019-03-08T12:13:04.720Z,984.60
2019-03-08T12:14:05.217Z,984.05
2019-03-08T12:15:06.156Z,984.20
2019-03-08T12:16:08.718Z,984.00
2019-03-08T12:17:05.222Z,984.06
2019-03-08T12:19:36.971Z,984.23
2019-03-08T12:20:59.970Z,984.47
2019-03-08T12:22:02.580Z,984.76
2019-03-08T12:24:30.225Z,984.79
2019-03-08T12:25:30.244Z,984.52
2019-03-08T12:26:30.230Z,984.54
2019-03-08T12:27:12.731Z,985.40
2019-03-08T12:28:31.691Z,985.32
2019-03-08T12:30:41.067Z,984.95
2019-03-08T12:31:41.074Z,984.62
2019-03-08T12:32:45.573Z,984.33
2019-03-08T12:33:41.583Z,984.27
2019-03-08T12:34:41.573Z,984.53
2019-03-08T12:35:43.578Z,984.25
2019-03-08T12:36:42.092Z,984.21
2019-03-08T12:37:42.074Z,984.20
2019-03-08T12:38:45.609Z,984.16
2019-03-08T12:41:13.735Z,984.34
2019-03-08T12:42:15.216Z,984.23
2019-03-08T12:43:13.743Z,984.13
2019-03-08T12:44:18.242Z,984.22
2019-03-08T12:45:14.250Z,984.24
2019-03-08T12:46:35.246Z,984.45
2019-03-08T12:47:14.253Z,984.26
2019-03-08T12:48:23.454Z,984.33
2019-03-08T12:49:14.742Z,984.82
2019-03-08T12:51:49.430Z,984.91
2019-03-08T12:52:49.440Z,984.69
2019-03-08T12:53:49.436Z,984.85
2019-03-08T12:54:49.948Z,984.17
2019-03-08T12:55:53.437Z,984.68
2019-03-08T12:56:49.937Z,984.29
2019-03-08T12:57:49.937Z,984.25
2019-03-08T12:58:50.447Z,984.61
2019-03-08T12:59:50.441Z,984.36
2019-03-08T13:00:49.969Z,985.04
2019-03-08T13:01:54.437Z,984.87
2019-03-08T13:02:51.877Z,984.63
2019-03-08T13:03:52.379Z,984.94
2019-03-08T13:04:50.240Z,984.78
2019-03-08T13:06:11.940Z,984.47
2019-03-08T13:06:50.936Z,984.67
2019-03-08T13:07:54.435Z,984.56
2019-03-08T13:09:12.437Z,984.37
2019-03-08T13:11:43.946Z,984.77
2019-03-08T13:12:22.954Z,984.98
2019-03-08T13:13:47.953Z,984.42
2019-03-08T13:14:44.491Z,984.93
2019-03-08T13:15:23.456Z,984.33
2019-03-08T13:16:23.453Z,984.29
2019-03-08T13:17:23.456Z,984.26
2019-03-08T13:18:48.453Z,984.54
2019-03-08T13:19:23.952Z,984.30
2019-03-08T13:20:23.952Z,984.43
2019-03-08T13:21:23.952Z,984.41
2019-03-08T13:22:46.891Z,984.42
2019-03-08T13:23:24.453Z,984.46